createdAt,value
2022-10-20T01:23:06.650Z,12.10
2022-10-20T01:28:20.770Z,13.23
2022-10-20T01:33:08.029Z,15.50
2022-10-20T01:37:50.599Z,14.80
2022-10-20T01:42:07.971Z,15.10
2022-10-20T01:51:01.697Z,13.23
2022-10-20T01:55:28.352Z,12.73
2022-10-20T02:00:21.248Z,8.80
2022-10-20T02:04:44.712Z,11.57
2022-10-20T02:09:01.668Z,7.30
2022-10-20T02:13:18.109Z,7.57
2022-10-20T02:17:31.008Z,11.83
2022-10-20T02:21:41.947Z,10.37
2022-10-20T02:25:54.232Z,9.03
2022-10-20T02:30:09.168Z,9.03
2022-10-20T02:34:19.090Z,5.93
2022-10-20T02:38:40.345Z,11.00
2022-10-20T02:42:49.947Z,12.70
2022-10-20T02:46:59.472Z,9.50
2022-10-20T02:51:08.990Z,8.40
2022-10-20T02:55:20.088Z,8.30
2022-10-20T02:59:29.497Z,9.97
2022-10-20T03:03:38.831Z,6.70
2022-10-20T03:07:48.470Z,9.03
2022-10-20T03:11:59.428Z,4.80
2022-10-20T03:16:09.575Z,7.73
2022-10-20T03:20:19.212Z,6.27
2022-10-20T03:24:28.625Z,6.57
2022-10-20T03:28:39.834Z,4.83
2022-10-20T03:32:49.249Z,7.37
2022-10-20T03:36:58.989Z,4.13
2022-10-20T03:41:08.623Z,7.30
2022-10-20T03:45:19.827Z,6.63
2022-10-20T03:49:29.390Z,6.60
2022-10-20T03:53:38.869Z,5.47
2022-10-20T03:57:48.512Z,5.73
2022-10-20T04:01:59.629Z,3.53
2022-10-20T04:06:09.151Z,10.50
2022-10-20T04:10:19.453Z,3.00
2022-10-20T04:14:28.851Z,5.03
2022-10-20T04:18:40.089Z,5.43
2022-10-20T04:22:50.649Z,4.43
2022-10-20T04:27:00.470Z,4.63
2022-10-20T04:31:11.770Z,3.60
2022-10-20T04:35:22.927Z,2.10
2022-10-20T04:39:34.551Z,6.00
2022-10-20T04:43:44.368Z,2.33
2022-10-20T04:47:54.607Z,4.60
2022-10-20T04:52:06.326Z,4.53
2022-10-20T04:56:19.867Z,2.00
2022-10-20T05:00:30.047Z,2.37
2022-10-20T05:04:39.367Z,2.70
2022-10-20T05:08:53.225Z,1.93
2022-10-20T05:13:02.753Z,2.30
2022-10-20T05:17:12.290Z,3.23
2022-10-20T05:21:23.909Z,4.20
2022-10-20T05:25:36.753Z,2.40
2022-10-20T05:29:46.445Z,2.73
2022-10-20T05:33:57.269Z,5.07
2022-10-20T05:38:06.570Z,3.87
2022-10-20T05:42:17.407Z,3.90
2022-10-20T05:46:27.747Z,4.67
2022-10-20T05:50:37.133Z,6.87
2022-10-20T05:54:46.306Z,4.27
2022-10-20T05:58:57.970Z,4.37
2022-10-20T06:03:07.632Z,7.57
2022-10-20T06:07:17.370Z,6.50
2022-10-20T06:11:27.628Z,3.63
2022-10-20T06:15:38.469Z,3.57
2022-10-20T06:19:47.567Z,3.40
2022-10-20T06:23:56.771Z,4.13
2022-10-20T06:28:06.345Z,4.47
2022-10-20T06:32:18.703Z,5.53
2022-10-20T06:36:29.187Z,5.17
2022-10-20T06:40:38.509Z,4.27
2022-10-20T06:44:47.765Z,5.63
2022-10-20T06:48:58.945Z,6.00
2022-10-20T06:53:08.369Z,7.80
2022-10-20T06:57:17.831Z,5.80
2022-10-20T07:01:29.002Z,8.07
2022-10-20T07:05:40.885Z,6.07
2022-10-20T07:09:50.346Z,7.77
2022-10-20T07:14:01.027Z,9.97
2022-10-20T07:18:10.270Z,6.87
2022-10-20T07:22:21.127Z,6.83
2022-10-20T07:26:31.922Z,8.57
2022-10-20T07:30:42.243Z,10.63
2022-10-20T07:34:51.495Z,8.63
2022-10-20T07:39:04.524Z,7.73
2022-10-20T07:43:13.828Z,9.67
2022-10-20T07:47:23.090Z,10.83
2022-10-20T07:51:35.170Z,14.87
2022-10-20T07:55:46.847Z,12.07
2022-10-20T07:59:56.210Z,9.40
2022-10-20T08:04:05.967Z,10.57
2022-10-20T08:08:33.145Z,11.50
2022-10-20T08:12:44.426Z,11.13
2022-10-20T08:16:59.397Z,13.47
2022-10-20T08:21:15.229Z,9.80
2022-10-20T08:25:25.088Z,9.37
2022-10-20T08:29:50.766Z,11.00
2022-10-20T09:42:29.653Z,4.33
2022-10-20T09:56:33.409Z,5.93
2022-10-20T10:05:44.566Z,1.47
2022-10-20T10:10:08.482Z,2.40
2022-10-20T10:14:26.149Z,2.10
2022-10-20T10:24:19.445Z,3.23
2022-10-20T10:28:40.085Z,2.70
2022-10-20T10:33:14.550Z,6.60
2022-10-20T10:37:42.647Z,6.37
2022-10-20T10:42:31.530Z,3.80
2022-10-20T10:46:49.682Z,3.83
2022-10-20T10:51:06.853Z,5.27
2022-10-20T10:55:47.784Z,4.40
2022-10-20T11:00:28.982Z,3.47
2022-10-20T11:05:19.029Z,6.30
2022-10-20T11:09:42.127Z,7.60
2022-10-20T11:18:44.049Z,8.90
2022-10-20T11:23:38.171Z,8.83
2022-10-20T11:27:55.467Z,4.33
2022-10-20T11:32:20.266Z,4.43
2022-10-20T11:36:40.068Z,7.73
2022-10-20T11:40:54.510Z,4.60
2022-10-20T11:45:24.627Z,7.50
2022-10-20T11:49:35.427Z,6.37
2022-10-20T11:54:14.685Z,7.03
2022-10-20T11:59:03.507Z,5.27
2022-10-20T12:03:49.108Z,8.83
2022-10-20T12:08:30.064Z,7.77
2022-10-20T12:12:53.126Z,5.20
2022-10-20T12:17:18.407Z,5.90
2022-10-20T12:21:58.030Z,4.40
2022-10-20T12:26:52.606Z,4.37
2022-10-20T12:31:03.192Z,8.47
2022-10-20T12:35:55.388Z,7.77
2022-10-20T12:40:43.989Z,8.10
2022-10-20T12:45:02.660Z,5.43
2022-10-20T12:49:24.668Z,6.40
2022-10-20T12:53:43.090Z,5.90
2022-10-20T12:58:32.254Z,5.53
2022-10-20T13:13:35.972Z,6.50
2022-10-20T13:29:23.767Z,4.17
2022-10-20T14:47:20.466Z,10.07
2022-10-20T14:52:56.426Z,11.23
2022-10-20T15:03:39.462Z,11.13
2022-10-20T15:08:13.669Z,14.90
2022-10-20T15:12:42.691Z,18.40
2022-10-20T15:17:06.704Z,14.93
2022-10-20T15:21:16.905Z,18.80
2022-10-20T15:40:26.549Z,18.07
2022-10-20T15:44:37.686Z,22.90
2022-10-20T15:49:09.806Z,14.40
2022-10-20T15:58:34.987Z,24.23
2022-10-20T16:07:40.227Z,16.10
2022-10-20T16:12:14.329Z,19.83
2022-10-20T16:21:01.468Z,20.20
2022-10-20T16:25:13.365Z,21.60
2022-10-20T16:29:23.831Z,23.27
2022-10-20T16:33:33.728Z,20.00
2022-10-20T16:37:46.949Z,21.17
2022-10-20T16:41:59.626Z,20.37
2022-10-20T16:50:49.768Z,18.50
2022-10-20T16:55:20.386Z,21.93
2022-10-20T16:59:36.568Z,21.73
2022-10-20T17:03:53.482Z,17.07
2022-10-20T17:08:07.568Z,19.10
2022-10-20T17:12:18.986Z,20.10
2022-10-20T17:16:32.309Z,18.30
2022-10-20T17:20:51.747Z,18.37
2022-10-20T17:25:10.706Z,15.63
2022-10-20T17:29:23.705Z,18.83
2022-10-20T17:33:40.147Z,19.73
2022-10-20T17:38:07.629Z,16.33
2022-10-20T17:42:16.965Z,18.57
2022-10-20T17:46:26.204Z,16.57
2022-10-20T17:50:36.985Z,13.30
2022-10-20T17:54:47.986Z,14.80
2022-10-20T17:58:58.509Z,20.37
2022-10-20T18:03:37.325Z,17.17
2022-10-20T18:07:59.900Z,14.87
2022-10-20T18:12:17.126Z,14.87
2022-10-20T18:16:28.808Z,14.07
2022-10-20T18:25:14.726Z,14.20
2022-10-20T18:29:37.088Z,16.40
2022-10-20T18:43:09.166Z,15.43
2022-10-20T18:47:28.945Z,16.53
2022-10-20T18:51:53.868Z,16.77
2022-10-20T18:56:17.427Z,20.60
2022-10-20T19:05:24.808Z,19.37
2022-10-20T19:14:41.330Z,16.50
2022-10-20T19:19:38.006Z,16.07
2022-10-20T19:24:38.486Z,18.10
2022-10-20T19:29:37.366Z,14.40
2022-10-20T19:38:16.492Z,20.27
2022-10-20T19:43:24.506Z,14.23
2022-10-20T19:52:40.586Z,13.63
2022-10-20T19:56:53.873Z,12.80
2022-10-20T20:11:42.291Z,13.10
2022-10-20T22:11:30.387Z,11.63
2022-10-20T22:30:29.370Z,8.70
2022-10-20T23:18:00.862Z,9.73
2022-10-20T23:22:10.788Z,12.53
2022-10-20T23:50:27.647Z,15.00
2022-10-20T23:59:05.087Z,12.57
